Time;durP1;ratioP1;P1;durP2;ratioP2;P2;SDS_P1;SDS_P2;PMS_P1;PMS_P2;Temp;Humidity;BMP_temperature;BMP_pressure;BME280_temperature;BME280_humidity;BME280_pressure;Samples;Min_cycle;Max_cycle;Signal;HPM_P1;HPM_P2
2021/04/04 00:01:17;;;;;;;8.60;7.05;;;-1.50;99.90;;;;;;4875900;29;20455;-76
2021/04/04 00:03:43;;;;;;;9.17;6.60;;;-1.50;99.90;;;;;;4887109;29;20407;-76
2021/04/04 00:06:08;;;;;;;10.40;7.50;;;-1.50;99.90;;;;;;4877602;29;20443;-76
2021/04/04 00:08:34;;;;;;;11.30;7.93;;;-1.50;99.90;;;;;;4868032;29;20785;-77
2021/04/04 00:11:00;;;;;;;14.20;9.82;;;-1.50;99.90;;;;;;4891469;29;20417;-76
2021/04/04 00:13:26;;;;;;;14.68;9.10;;;-1.60;99.90;;;;;;4897875;29;20966;-75
2021/04/04 00:15:52;;;;;;;18.63;11.35;;;-1.60;99.90;;;;;;4875011;29;20405;-77
2021/04/04 00:18:17;;;;;;;13.73;9.90;;;-1.70;99.90;;;;;;4881667;29;20440;-78
2021/04/04 00:20:43;;;;;;;15.47;10.37;;;-1.70;99.90;;;;;;4888690;29;20506;-78
2021/04/04 00:23:12;;;;;;;17.48;10.25;;;-1.70;99.90;;;;;;4866103;29;20494;-78
2021/04/04 00:25:37;;;;;;;21.73;13.23;;;-1.70;99.90;;;;;;4879494;29;20440;-77
2021/04/04 00:28:03;;;;;;;16.57;11.77;;;-1.70;99.90;;;;;;4835947;29;20977;-77
2021/04/04 00:30:29;;;;;;;14.80;10.48;;;-1.80;99.90;;;;;;4858912;29;20918;-79
2021/04/04 00:32:55;;;;;;;15.30;9.37;;;-1.90;99.90;;;;;;4891177;29;20468;-74
2021/04/04 00:35:21;;;;;;;13.60;9.03;;;-1.90;99.90;;;;;;4882706;29;20834;-77
2021/04/04 00:37:47;;;;;;;10.80;8.45;;;-1.80;99.90;;;;;;4858545;29;20404;-77
2021/04/04 00:40:21;;;;;;;12.23;9.00;;;-1.90;99.90;;;;;;4880888;29;20494;-75
2021/04/04 00:42:47;;;;;;;15.25;10.85;;;-1.90;99.90;;;;;;4873490;29;20925;-76
2021/04/04 00:45:22;;;;;;;20.33;12.98;;;-1.90;99.90;;;;;;4887125;29;20490;-75
2021/04/04 00:47:48;;;;;;;17.63;11.13;;;-1.90;99.90;;;;;;4885613;29;20410;-74
2021/04/04 00:50:14;;;;;;;16.55;10.30;;;-1.90;99.90;;;;;;4873896;29;20411;-75
2021/04/04 00:52:40;;;;;;;14.38;9.77;;;-1.90;99.90;;;;;;4879075;29;20484;-76
2021/04/04 00:55:07;;;;;;;12.63;8.82;;;-2.00;99.90;;;;;;4878600;29;20428;-74
2021/04/04 00:57:33;;;;;;;10.02;7.60;;;-2.00;99.90;;;;;;4855174;29;20412;-77
2021/04/04 01:00:03;;;;;;;14.38;7.85;;;-2.10;99.90;;;;;;4863484;29;20427;-76
2021/04/04 01:02:30;;;;;;;11.73;7.97;;;-2.10;99.90;;;;;;4891628;29;20398;-75
2021/04/04 01:04:59;;;;;;;17.65;9.63;;;-2.10;99.90;;;;;;4881572;29;20403;-76
2021/04/04 01:07:24;;;;;;;12.02;7.38;;;-2.10;99.90;;;;;;4853078;29;20409;-76
2021/04/04 01:09:50;;;;;;;8.68;6.90;;;-2.10;99.90;;;;;;4900790;29;20474;-76
2021/04/04 01:12:40;;;;;;;8.77;6.80;;;-2.10;99.90;;;;;;4892558;29;20473;-76
2021/04/04 01:15:17;;;;;;;12.18;6.88;;;-2.20;99.90;;;;;;4874730;29;20419;-79
2021/04/04 01:17:44;;;;;;;12.73;7.22;;;-2.20;99.90;;;;;;4875443;29;20476;-76
2021/04/04 01:20:28;;;;;;;11.13;7.07;;;-2.20;99.90;;;;;;4860712;29;20770;-77
2021/04/04 01:23:31;;;;;;;11.20;7.47;;;-2.20;99.90;;;;;;4860095;29;20410;-79
2021/04/04 01:26:05;;;;;;;9.77;7.55;;;-2.30;99.90;;;;;;4895707;29;20429;-78
2021/04/04 01:28:34;;;;;;;10.20;7.60;;;-2.30;99.90;;;;;;4903419;29;20485;-77
2021/04/04 01:31:00;;;;;;;10.82;7.88;;;-2.40;99.90;;;;;;4875494;29;20407;-77
2021/04/04 01:33:26;;;;;;;8.70;7.50;;;-2.40;99.90;;;;;;4833604;29;20416;-78
2021/04/04 01:35:55;;;;;;;9.55;7.40;;;-2.40;99.90;;;;;;4877380;29;20412;-77
2021/04/04 01:38:23;;;;;;;8.38;6.40;;;-2.50;99.90;;;;;;4860305;29;20762;-77
2021/04/04 01:40:52;;;;;;;9.02;6.35;;;-2.50;99.90;;;;;;4868042;29;20761;-78
2021/04/04 01:43:17;;;;;;;9.27;6.15;;;-2.50;99.90;;;;;;4857195;29;20437;-76
2021/04/04 01:45:43;;;;;;;13.00;9.60;;;-2.40;99.90;;;;;;4860880;29;20789;-79
2021/04/04 01:48:11;;;;;;;12.20;8.52;;;-2.40;99.90;;;;;;4876051;29;20881;-75
2021/04/04 01:50:37;;;;;;;11.88;8.23;;;-2.50;99.90;;;;;;4875874;29;20418;-75
2021/04/04 01:53:03;;;;;;;12.52;8.57;;;-2.50;99.90;;;;;;4851196;29;20407;-78
2021/04/04 01:55:29;;;;;;;6.00;5.05;;;-2.50;99.90;;;;;;4848229;29;20414;-78
2021/04/04 01:57:55;;;;;;;5.45;4.75;;;-2.50;99.90;;;;;;4887730;29;20409;-75
2021/04/04 02:00:25;;;;;;;6.55;4.72;;;-2.50;99.90;;;;;;4871555;29;20962;-83
2021/04/04 02:02:51;;;;;;;8.45;5.63;;;-2.60;99.90;;;;;;4859252;29;20422;-87
2021/04/04 02:05:17;;;;;;;8.67;5.00;;;-2.60;99.90;;;;;;4878283;29;20399;-78
2021/04/04 02:07:46;;;;;;;5.15;4.63;;;-2.60;99.90;;;;;;4876566;29;20480;-86
2021/04/04 02:10:14;;;;;;;8.65;5.22;;;-2.60;99.90;;;;;;4888136;29;20415;-82
2021/04/04 02:12:42;;;;;;;9.00;5.68;;;-2.60;99.90;;;;;;4854022;29;20417;-84
2021/04/04 02:15:09;;;;;;;5.80;5.03;;;-2.60;99.90;;;;;;4849746;29;20400;-86
2021/04/04 02:17:35;;;;;;;7.30;5.57;;;-2.50;99.90;;;;;;4853638;29;20904;-77
2021/04/04 02:20:03;;;;;;;6.90;5.78;;;-2.50;99.90;;;;;;4854358;29;20408;-80
2021/04/04 02:22:30;;;;;;;6.03;5.25;;;-2.50;99.90;;;;;;4869266;29;20427;-77
2021/04/04 02:24:57;;;;;;;6.18;5.13;;;-2.50;99.90;;;;;;4872989;29;20398;-78
2021/04/04 02:27:22;;;;;;;6.70;4.90;;;-2.60;99.90;;;;;;4840984;29;20414;-81
2021/04/04 02:29:48;;;;;;;8.60;5.10;;;-2.50;99.90;;;;;;4858842;29;20763;-76
2021/04/04 02:32:14;;;;;;;6.90;5.18;;;-2.60;99.90;;;;;;4857900;29;20406;-79
2021/04/04 02:34:40;;;;;;;5.93;4.38;;;-2.70;99.90;;;;;;4850037;29;20419;-79
2021/04/04 02:37:09;;;;;;;4.70;4.13;;;-2.70;99.90;;;;;;4878677;29;20498;-84
2021/04/04 02:39:42;;;;;;;5.93;4.50;;;-2.80;99.90;;;;;;4877155;29;20805;-80
2021/04/04 02:42:08;;;;;;;5.45;4.45;;;-2.80;99.90;;;;;;4873535;29;20401;-78
2021/04/04 02:44:33;;;;;;;5.67;4.70;;;-2.70;99.90;;;;;;4857239;29;20430;-80
2021/04/04 02:47:03;;;;;;;4.60;4.10;;;-2.80;99.90;;;;;;4907316;29;20928;-78
2021/04/04 02:49:30;;;;;;;5.13;4.03;;;-2.80;99.90;;;;;;4867099;29;20420;-85
2021/04/04 02:51:58;;;;;;;4.15;3.67;;;-2.80;99.90;;;;;;4876309;29;20418;-77
2021/04/04 02:54:25;;;;;;;4.22;3.70;;;-2.80;99.90;;;;;;4848441;29;20406;-85
2021/04/04 02:56:51;;;;;;;3.85;3.47;;;-2.90;99.90;;;;;;4858013;29;20416;-73
2021/04/04 02:59:24;;;;;;;6.13;4.05;;;-2.80;99.90;;;;;;4886764;29;21120;-82
2021/04/04 03:01:50;;;;;;;4.10;3.70;;;-2.80;99.90;;;;;;4865658;29;20419;-77
2021/04/04 03:04:16;;;;;;;5.65;4.15;;;-2.80;99.90;;;;;;4867201;29;20444;-76
2021/04/04 03:06:43;;;;;;;4.25;3.85;;;-2.80;99.90;;;;;;4876204;29;20427;-75
2021/04/04 03:09:09;;;;;;;5.53;3.80;;;-2.80;99.90;;;;;;4869424;29;20422;-78
2021/04/04 03:11:36;;;;;;;4.05;3.45;;;-2.90;99.90;;;;;;4885095;29;20975;-77
2021/04/04 03:14:02;;;;;;;5.18;3.40;;;-3.00;99.90;;;;;;4859399;29;20403;-83
2021/04/04 03:16:28;;;;;;;5.68;3.70;;;-3.00;99.90;;;;;;4873109;29;20933;-76
2021/04/04 03:18:54;;;;;;;4.13;3.72;;;-3.00;99.90;;;;;;4864141;29;20928;-83
2021/04/04 03:21:20;;;;;;;3.53;3.22;;;-3.00;99.90;;;;;;4861839;29;20408;-80
2021/04/04 03:23:45;;;;;;;4.75;3.63;;;-2.90;99.90;;;;;;4855881;29;20429;-83
2021/04/04 03:26:12;;;;;;;3.88;3.15;;;-3.00;99.90;;;;;;4885765;29;20465;-82
2021/04/04 03:28:41;;;;;;;6.32;3.25;;;-2.90;99.90;;;;;;4875536;29;20423;-79
2021/04/04 03:31:07;;;;;;;3.95;3.35;;;-3.10;99.90;;;;;;4867611;29;20403;-87
2021/04/04 03:33:32;;;;;;;3.20;2.90;;;-3.20;99.90;;;;;;4876835;29;20406;-77
2021/04/04 03:35:58;;;;;;;5.43;2.85;;;-3.30;99.90;;;;;;4863461;29;20415;-81
2021/04/04 03:38:24;;;;;;;3.28;2.97;;;-3.20;99.90;;;;;;4858852;29;20478;-83
2021/04/04 03:40:51;;;;;;;3.30;3.00;;;-3.40;99.90;;;;;;4862402;29;20416;-80
2021/04/04 03:43:28;;;;;;;3.45;2.85;;;-3.30;99.90;;;;;;4846496;29;20452;-85
2021/04/04 03:45:56;;;;;;;3.45;2.63;;;-3.30;99.90;;;;;;4858958;29;20550;-85
2021/04/04 03:48:22;;;;;;;3.23;2.93;;;-3.30;99.90;;;;;;4873720;29;20421;-77
2021/04/04 03:50:48;;;;;;;4.03;3.00;;;-3.30;99.90;;;;;;4851222;29;20414;-87
2021/04/04 03:53:17;;;;;;;3.30;3.00;;;-3.40;99.90;;;;;;4853735;29;20449;-84
2021/04/04 03:55:43;;;;;;;7.53;3.20;;;-3.50;99.90;;;;;;4848587;29;21175;-85
2021/04/04 03:58:09;;;;;;;4.60;3.40;;;-3.50;99.90;;;;;;4876890;29;20405;-81
2021/04/04 04:00:34;;;;;;;3.37;3.07;;;-3.50;99.90;;;;;;4841432;29;20424;-81
2021/04/04 04:03:00;;;;;;;5.17;3.23;;;-3.50;99.90;;;;;;4847405;29;20521;-76
2021/04/04 04:05:26;;;;;;;5.43;2.97;;;-3.40;99.90;;;;;;4873851;29;20403;-85
2021/04/04 04:07:52;;;;;;;3.88;3.17;;;-3.50;99.90;;;;;;4849670;29;20413;-85
2021/04/04 04:10:18;;;;;;;3.28;2.97;;;-3.60;99.90;;;;;;4871142;29;20454;-80
2021/04/04 04:12:44;;;;;;;3.42;2.90;;;-3.60;99.90;;;;;;4855097;29;20397;-83
2021/04/04 04:15:12;;;;;;;3.10;2.80;;;-3.50;99.90;;;;;;4857592;29;20403;-83
2021/04/04 04:17:37;;;;;;;3.47;2.70;;;-3.50;99.90;;;;;;4858935;29;20465;-77
2021/04/04 04:20:04;;;;;;;4.47;3.08;;;-3.50;99.90;;;;;;4858761;29;20405;-84
2021/04/04 04:22:29;;;;;;;4.17;3.03;;;-3.50;99.90;;;;;;4871756;29;20419;-82
2021/04/04 04:24:55;;;;;;;3.40;2.93;;;-3.50;99.90;;;;;;4880966;29;20389;-80
2021/04/04 04:27:21;;;;;;;3.47;3.00;;;-3.50;99.90;;;;;;4873787;29;20406;-78
2021/04/04 04:29:47;;;;;;;3.10;2.80;;;-3.60;99.90;;;;;;4867554;29;20415;-83
2021/04/04 04:32:18;;;;;;;3.17;2.87;;;-3.70;99.90;;;;;;4866949;29;20412;-84
2021/04/04 04:34:44;;;;;;;3.17;2.88;;;-3.70;99.90;;;;;;4858662;29;20498;-86
2021/04/04 04:37:11;;;;;;;3.40;2.88;;;-3.70;99.90;;;;;;4866411;29;20857;-80
2021/04/04 04:39:37;;;;;;;3.00;2.73;;;-3.80;99.90;;;;;;4874245;29;20499;-87
2021/04/04 04:42:02;;;;;;;3.73;3.13;;;-3.80;99.90;;;;;;4868773;29;20480;-83
2021/04/04 04:44:29;;;;;;;2.93;2.63;;;-3.80;99.90;;;;;;4864981;29;20406;-85
2021/04/04 04:46:54;;;;;;;3.13;2.83;;;-3.70;99.90;;;;;;4828289;29;20427;-76
2021/04/04 04:49:20;;;;;;;4.00;3.00;;;-3.70;99.90;;;;;;4867716;29;20751;-86
2021/04/04 04:51:47;;;;;;;2.65;2.45;;;-3.70;99.90;;;;;;4861178;29;20420;-80
2021/04/04 04:54:12;;;;;;;2.72;2.53;;;-3.80;99.90;;;;;;4871007;29;20466;-85
2021/04/04 04:56:40;;;;;;;3.58;2.85;;;-3.70;99.90;;;;;;4843477;29;20506;-81
2021/04/04 04:59:06;;;;;;;3.78;2.65;;;-3.60;99.90;;;;;;4872312;29;20822;-86
2021/04/04 05:01:36;;;;;;;2.97;2.60;;;-3.60;99.90;;;;;;4857988;29;20423;-86
2021/04/04 05:04:02;;;;;;;4.50;3.10;;;-3.60;99.90;;;;;;4842989;29;20501;-85
2021/04/04 05:06:28;;;;;;;3.33;2.72;;;-3.70;99.90;;;;;;4850522;29;20492;-83
2021/04/04 05:08:54;;;;;;;3.75;3.15;;;-3.70;99.90;;;;;;4841613;29;20535;-88
2021/04/04 05:11:20;;;;;;;4.30;3.17;;;-3.70;99.90;;;;;;4856630;29;20405;-87
2021/04/04 05:13:45;;;;;;;4.47;3.37;;;-3.70;99.90;;;;;;4859632;29;20435;-82
2021/04/04 05:16:15;;;;;;;3.53;3.20;;;-3.60;99.90;;;;;;4860344;29;20406;-84
2021/04/04 05:18:47;;;;;;;4.03;3.38;;;-3.60;99.90;;;;;;4891528;29;20411;-86
2021/04/04 05:21:24;;;;;;;4.83;3.20;;;-3.60;99.90;;;;;;4877120;29;20414;-88
2021/04/04 05:24:00;;;;;;;4.47;3.10;;;-3.50;99.90;;;;;;4861390;29;20419;-84
2021/04/04 05:26:27;;;;;;;4.65;3.63;;;-3.50;99.90;;;;;;4875740;29;20414;-81
2021/04/04 05:28:53;;;;;;;5.43;3.42;;;-3.40;99.90;;;;;;4850724;29;20428;-84
2021/04/04 05:31:20;;;;;;;4.25;3.08;;;-3.30;99.90;;;;;;4892013;29;20916;-77
2021/04/04 05:33:46;;;;;;;5.28;4.30;;;-3.30;99.90;;;;;;4860872;29;21923;-79
2021/04/04 05:36:12;;;;;;;5.70;4.53;;;-3.20;99.90;;;;;;4856927;29;20424;-82
2021/04/04 05:38:37;;;;;;;5.33;4.10;;;-3.10;99.90;;;;;;4870179;29;20434;-78
2021/04/04 05:41:03;;;;;;;6.30;4.75;;;-2.90;99.90;;;;;;4868087;29;20395;-78
2021/04/04 05:43:34;;;;;;;5.82;5.18;;;-2.80;99.90;;;;;;4875623;29;20438;-80
2021/04/04 05:46:08;;;;;;;5.40;3.92;;;-2.70;99.90;;;;;;4866365;29;20515;-77
2021/04/04 05:48:52;;;;;;;6.50;4.97;;;-2.60;99.90;;;;;;4883402;29;20419;-77
2021/04/04 05:51:32;;;;;;;6.75;5.00;;;-2.40;99.90;;;;;;4886830;29;20420;-75
2021/04/04 05:54:35;;;;;;;5.93;4.78;;;-2.30;99.90;;;;;;4875235;29;20399;-76
2021/04/04 05:57:15;;;;;;;5.97;4.97;;;-2.10;99.90;;;;;;4873448;29;20403;-77
2021/04/04 05:59:48;;;;;;;5.67;4.20;;;-1.90;99.90;;;;;;4873076;29;20500;-76
2021/04/04 06:02:17;;;;;;;4.78;4.30;;;-1.80;99.90;;;;;;4872123;29;20912;-76
2021/04/04 06:04:58;;;;;;;5.85;4.68;;;-1.60;99.90;;;;;;4865426;29;20405;-76
2021/04/04 06:07:39;;;;;;;5.90;4.68;;;-1.50;99.90;;;;;;4876190;29;20480;-77
2021/04/04 06:10:11;;;;;;;5.43;4.93;;;-1.40;99.90;;;;;;4873573;29;20435;-76
2021/04/04 06:12:39;;;;;;;6.55;4.18;;;-1.30;99.90;;;;;;4864966;29;21054;-76
2021/04/04 06:15:06;;;;;;;4.30;3.90;;;-1.10;99.90;;;;;;4891890;29;20411;-77
2021/04/04 06:17:38;;;;;;;4.82;3.80;;;-1.00;99.90;;;;;;4889704;29;20746;-80
2021/04/04 06:20:31;;;;;;;6.60;3.60;;;-0.90;99.90;;;;;;4853457;29;20756;-79
2021/04/04 06:23:06;;;;;;;4.18;3.78;;;-0.80;99.90;;;;;;4866714;29;20415;-79
2021/04/04 06:25:59;;;;;;;5.53;4.20;;;-0.60;99.90;;;;;;4881168;29;20488;-78
2021/04/04 06:28:46;;;;;;;3.72;3.20;;;-0.50;99.90;;;;;;4879334;29;20419;-77
2021/04/04 06:31:33;;;;;;;4.00;3.60;;;-0.30;99.90;;;;;;4884595;29;20420;-77
2021/04/04 06:34:12;;;;;;;4.20;3.53;;;-0.20;99.90;;;;;;4883502;29;20421;-77
2021/04/04 06:37:18;;;;;;;3.47;3.00;;;-0.10;99.90;;;;;;4855761;29;20415;-77
2021/04/04 06:40:28;;;;;;;3.17;2.90;;;0.00;99.90;;;;;;4860230;29;20472;-77
2021/04/04 06:43:46;;;;;;;4.57;3.72;;;0.20;99.90;;;;;;4851986;29;20407;-76
2021/04/04 06:46:43;;;;;;;3.88;2.72;;;0.40;99.90;;;;;;4856790;29;20441;-80
2021/04/04 06:49:35;;;;;;;5.22;3.90;;;0.60;99.90;;;;;;4827498;29;20486;-78
2021/04/04 06:52:09;;;;;;;3.80;3.40;;;0.70;99.90;;;;;;4874633;29;20414;-78
2021/04/04 06:54:52;;;;;;;5.10;4.30;;;0.90;99.90;;;;;;4866645;29;20404;-78
2021/04/04 06:57:26;;;;;;;7.43;6.00;;;1.00;99.90;;;;;;4873617;29;20412;-78
2021/04/04 07:00:09;;;;;;;6.15;3.42;;;1.20;99.90;;;;;;4859155;29;20409;-79
2021/04/04 07:03:04;;;;;;;2.90;2.70;;;1.30;99.90;;;;;;4871732;29;20411;-77
2021/04/04 07:05:31;;;;;;;3.30;3.00;;;1.50;99.90;;;;;;4853646;29;20851;-77
2021/04/04 07:08:05;;;;;;;5.57;3.33;;;1.50;99.90;;;;;;4880019;29;20422;-78
2021/04/04 07:10:39;;;;;;;3.50;3.20;;;1.70;99.90;;;;;;4893536;29;20411;-78
2021/04/04 07:13:13;;;;;;;2.80;2.35;;;1.80;99.90;;;;;;4877073;29;20494;-77
2021/04/04 07:16:02;;;;;;;3.70;2.65;;;2.00;99.90;;;;;;4845712;29;20478;-77
2021/04/04 07:18:56;;;;;;;3.30;2.95;;;2.20;99.90;;;;;;4857834;29;20407;-77
2021/04/04 07:21:40;;;;;;;2.45;2.25;;;2.30;99.90;;;;;;4879565;29;20419;-78
2021/04/04 07:24:18;;;;;;;3.30;2.55;;;2.70;99.90;;;;;;4872582;29;20411;-76
2021/04/04 07:27:13;;;;;;;3.73;2.40;;;2.70;99.90;;;;;;4872243;29;20419;-77
2021/04/04 07:29:45;;;;;;;2.65;2.35;;;2.90;99.90;;;;;;4844081;29;20421;-76
2021/04/04 07:32:18;;;;;;;3.40;2.55;;;3.10;99.90;;;;;;4884389;29;20417;-78
2021/04/04 07:35:09;;;;;;;2.50;2.30;;;3.20;99.90;;;;;;4873848;29;20410;-78
2021/04/04 07:37:44;;;;;;;3.08;2.50;;;3.40;99.90;;;;;;4871557;29;20492;-78
2021/04/04 07:40:14;;;;;;;2.35;2.15;;;3.60;99.90;;;;;;4875331;29;20419;-78
2021/04/04 07:43:09;;;;;;;2.30;2.10;;;3.80;99.90;;;;;;4864676;29;20805;-77
2021/04/04 07:45:44;;;;;;;3.03;2.47;;;4.00;99.90;;;;;;4867606;29;20776;-78
2021/04/04 07:48:22;;;;;;;2.63;2.33;;;4.20;99.90;;;;;;4844281;29;20415;-78
2021/04/04 07:51:08;;;;;;;2.17;1.70;;;4.40;99.90;;;;;;4873667;29;20770;-78
2021/04/04 07:53:53;;;;;;;1.92;1.83;;;4.60;99.90;;;;;;4869952;29;20900;-78
2021/04/04 07:56:31;;;;;;;1.95;1.77;;;4.80;99.90;;;;;;4864380;29;20923;-78
2021/04/04 07:59:01;;;;;;;2.10;1.90;;;5.00;99.90;;;;;;4888267;29;20796;-78
2021/04/04 08:01:37;;;;;;;1.90;1.80;;;5.10;99.90;;;;;;4855122;29;20420;-79
2021/04/04 08:04:21;;;;;;;2.13;1.92;;;5.20;99.90;;;;;;4863500;29;20429;-77
2021/04/04 08:06:51;;;;;;;3.30;1.90;;;5.40;99.90;;;;;;4855888;29;20433;-78
2021/04/04 08:09:36;;;;;;;2.05;1.70;;;5.50;99.90;;;;;;4853800;29;20456;-78
2021/04/04 08:12:02;;;;;;;1.40;1.30;;;5.50;99.90;;;;;;4876342;29;20411;-79
2021/04/04 08:14:33;;;;;;;2.30;1.77;;;5.70;99.90;;;;;;4872147;29;20435;-78
2021/04/04 08:16:59;;;;;;;1.10;1.10;;;5.80;99.90;;;;;;4868326;29;20490;-79
2021/04/04 08:19:25;;;;;;;1.67;1.40;;;5.90;99.90;;;;;;4848314;29;20852;-78
2021/04/04 08:22:19;;;;;;;1.42;1.33;;;5.90;99.90;;;;;;4861953;29;20468;-79
2021/04/04 08:24:56;;;;;;;1.40;1.30;;;6.00;99.90;;;;;;4899254;29;20416;-79
2021/04/04 08:27:38;;;;;;;1.40;1.30;;;6.00;99.90;;;;;;4888386;29;20405;-79
2021/04/04 08:30:17;;;;;;;1.40;1.30;;;6.10;99.90;;;;;;4864694;29;20427;-78
2021/04/04 08:32:50;;;;;;;0.98;0.98;;;6.10;99.90;;;;;;4882201;29;20420;-78
2021/04/04 08:35:21;;;;;;;2.13;1.92;;;6.30;99.90;;;;;;4869932;29;20440;-78
2021/04/04 08:37:54;;;;;;;1.50;1.40;;;6.20;99.90;;;;;;4871544;29;20889;-79
2021/04/04 08:40:20;;;;;;;1.10;1.10;;;6.30;99.90;;;;;;4857857;29;20839;-78
2021/04/04 08:42:46;;;;;;;1.65;1.08;;;6.30;99.90;;;;;;4855404;29;20424;-78
2021/04/04 08:45:19;;;;;;;1.00;1.00;;;6.40;99.90;;;;;;4871495;29;20415;-78
2021/04/04 08:47:46;;;;;;;1.23;1.13;;;6.60;99.90;;;;;;4849856;29;20429;-77
2021/04/04 08:50:14;;;;;;;1.20;1.10;;;6.60;99.90;;;;;;4884596;29;20463;-77
2021/04/04 08:52:59;;;;;;;1.02;1.02;;;6.80;99.90;;;;;;4890711;29;20411;-77
2021/04/04 08:55:29;;;;;;;2.67;1.00;;;6.90;99.90;;;;;;4865543;29;20425;-78
2021/04/04 08:57:57;;;;;;;0.93;0.93;;;7.00;99.90;;;;;;4887125;29;20947;-78
2021/04/04 09:00:24;;;;;;;0.77;0.77;;;7.00;99.90;;;;;;4876621;29;20805;-78
2021/04/04 09:03:05;;;;;;;1.17;1.10;;;7.10;99.90;;;;;;4877854;29;20428;-76
2021/04/04 09:05:33;;;;;;;1.35;1.10;;;7.10;99.90;;;;;;4864338;29;20493;-76
2021/04/04 09:08:01;;;;;;;1.38;1.20;;;7.20;99.90;;;;;;4856764;29;20403;-76
2021/04/04 09:10:31;;;;;;;1.60;1.50;;;7.20;99.90;;;;;;4864744;29;20401;-76
2021/04/04 09:12:57;;;;;;;0.93;0.93;;;7.20;99.90;;;;;;4886254;29;20465;-76
2021/04/04 09:15:23;;;;;;;1.00;1.00;;;7.30;99.90;;;;;;4874971;29;20417;-77
2021/04/04 09:17:57;;;;;;;1.37;1.20;;;7.30;99.90;;;;;;4858882;29;20448;-77
2021/04/04 09:20:32;;;;;;;3.83;1.10;;;7.30;99.90;;;;;;4861640;29;20422;-78
2021/04/04 09:22:57;;;;;;;0.98;0.98;;;7.30;99.90;;;;;;4868201;29;20418;-78
2021/04/04 09:25:23;;;;;;;0.98;0.98;;;7.30;99.90;;;;;;4878037;29;20500;-78
2021/04/04 09:27:49;;;;;;;1.00;1.00;;;7.40;99.90;;;;;;4876107;29;20466;-78
2021/04/04 09:30:34;;;;;;;1.23;1.13;;;7.50;99.90;;;;;;4873084;29;20423;-76
2021/04/04 09:33:04;;;;;;;0.90;0.90;;;7.60;99.90;;;;;;4891039;29;21083;-78
2021/04/04 09:35:30;;;;;;;1.00;1.00;;;7.70;99.90;;;;;;4849245;29;20453;-79
2021/04/04 09:38:01;;;;;;;1.80;1.17;;;7.90;99.90;;;;;;4886083;29;20931;-77
2021/04/04 09:40:27;;;;;;;0.93;0.93;;;8.00;99.90;;;;;;4877302;29;20543;-78
2021/04/04 09:42:53;;;;;;;1.00;1.00;;;8.00;99.90;;;;;;4876419;29;20490;-77
2021/04/04 09:45:23;;;;;;;1.25;1.15;;;8.10;99.90;;;;;;4875918;29;20415;-77
2021/04/04 09:47:50;;;;;;;1.90;1.80;;;8.20;99.40;;;;;;4888485;29;20521;-78
2021/04/04 09:50:28;;;;;;;1.30;1.00;;;8.40;99.90;;;;;;4875672;29;20424;-78
2021/04/04 09:52:55;;;;;;;1.00;1.00;;;8.40;98.20;;;;;;4861363;29;20969;-79
2021/04/04 09:55:22;;;;;;;1.60;0.98;;;8.50;97.40;;;;;;4876757;29;20403;-78
2021/04/04 09:57:50;;;;;;;1.17;1.08;;;8.60;98.40;;;;;;4859634;29;21092;-78
2021/04/04 10:00:19;;;;;;;1.00;1.00;;;8.80;96.70;;;;;;4860428;29;20435;-78
2021/04/04 10:02:46;;;;;;;1.70;1.40;;;9.00;95.20;;;;;;4880784;29;20453;-78
2021/04/04 10:05:12;;;;;;;1.27;1.17;;;9.10;96.00;;;;;;4877390;29;20517;-78
2021/04/04 10:07:40;;;;;;;1.60;1.10;;;9.40;94.20;;;;;;4859736;29;20413;-78
2021/04/04 10:10:07;;;;;;;1.30;1.00;;;9.50;93.30;;;;;;4878447;29;20425;-79
2021/04/04 10:12:55;;;;;;;0.88;0.88;;;9.60;92.70;;;;;;4903576;29;20446;-79
2021/04/04 10:15:21;;;;;;;1.00;1.00;;;9.60;92.00;;;;;;4873995;29;20412;-78
2021/04/04 10:17:53;;;;;;;0.90;0.90;;;9.80;91.00;;;;;;4865933;29;20431;-79
2021/04/04 10:20:36;;;;;;;1.13;1.10;;;10.30;93.00;;;;;;4898678;29;20422;-79
2021/04/04 10:23:04;;;;;;;1.00;0.90;;;10.60;90.30;;;;;;4888793;29;20480;-79
2021/04/04 10:25:30;;;;;;;1.20;1.20;;;10.50;86.00;;;;;;4880351;29;20423;-80
2021/04/04 10:28:02;;;;;;;2.33;1.50;;;10.60;84.70;;;;;;4881031;29;20447;-78
2021/04/04 10:30:31;;;;;;;0.98;0.98;;;10.60;86.70;;;;;;4893348;29;20930;-80
2021/04/04 10:33:16;;;;;;;2.88;1.60;;;10.70;83.80;;;;;;4876283;29;20430;-80
2021/04/04 10:35:42;;;;;;;2.50;1.40;;;10.80;82.20;;;;;;4862448;29;20426;-78
2021/04/04 10:38:27;;;;;;;1.58;1.00;;;10.90;82.80;;;;;;4877178;29;20773;-79
2021/04/04 10:40:54;;;;;;;1.40;1.30;;;11.40;84.60;;;;;;4875082;29;20440;-79
2021/04/04 10:43:41;;;;;;;0.93;0.93;;;11.00;83.00;;;;;;4876485;29;20406;-78
2021/04/04 10:46:10;;;;;;;1.40;1.15;;;11.30;77.40;;;;;;4880656;29;20429;-79
2021/04/04 10:48:38;;;;;;;1.20;1.10;;;11.50;79.50;;;;;;4889398;29;20932;-79
2021/04/04 10:51:05;;;;;;;1.40;1.30;;;11.50;75.30;;;;;;4861581;29;20405;-78
2021/04/04 10:53:31;;;;;;;1.15;1.05;;;11.70;75.30;;;;;;4895430;29;20980;-79
2021/04/04 10:55:56;;;;;;;2.33;1.03;;;11.90;71.20;;;;;;4858251;29;20406;-78
2021/04/04 10:58:26;;;;;;;1.60;1.20;;;11.90;72.40;;;;;;4884177;29;20983;-79
2021/04/04 11:00:52;;;;;;;1.23;1.10;;;12.10;71.50;;;;;;4865837;29;20426;-80
2021/04/04 11:03:18;;;;;;;1.00;1.00;;;12.60;72.40;;;;;;4857974;29;20422;-79
2021/04/04 11:05:44;;;;;;;1.85;1.38;;;12.80;71.10;;;;;;4884683;29;20413;-80
2021/04/04 11:08:10;;;;;;;2.40;1.30;;;12.70;68.90;;;;;;4864570;29;20462;-79
2021/04/04 11:10:36;;;;;;;1.20;1.10;;;12.60;69.80;;;;;;4873458;29;20497;-80
2021/04/04 11:13:02;;;;;;;2.97;1.13;;;12.20;61.40;;;;;;4878469;29;20414;-80
2021/04/04 11:15:37;;;;;;;1.40;1.30;;;11.70;61.90;;;;;;4856262;29;20419;-81
2021/04/04 11:18:12;;;;;;;1.27;1.17;;;11.60;61.60;;;;;;4845679;29;20476;-80
2021/04/04 11:20:39;;;;;;;1.20;1.10;;;12.40;66.50;;;;;;4871623;29;20430;-80
2021/04/04 11:23:05;;;;;;;1.35;1.25;;;12.80;66.30;;;;;;4877062;29;20403;-80
2021/04/04 11:25:31;;;;;;;1.58;1.17;;;12.90;63.40;;;;;;4872970;29;20421;-82
2021/04/04 11:27:57;;;;;;;1.25;1.15;;;13.10;62.70;;;;;;4860062;29;20465;-80
2021/04/04 11:30:29;;;;;;;1.10;1.10;;;13.30;64.30;;;;;;4877576;29;20408;-80
2021/04/04 11:33:16;;;;;;;1.52;1.10;;;13.40;64.20;;;;;;4893396;29;20411;-81
2021/04/04 11:36:10;;;;;;;1.10;1.10;;;13.10;60.30;;;;;;4892441;29;20490;-79
2021/04/04 11:38:54;;;;;;;1.38;1.27;;;13.20;60.50;;;;;;4894567;29;20399;-82
2021/04/04 11:41:24;;;;;;;1.50;1.20;;;13.40;63.40;;;;;;4884807;29;20984;-83
2021/04/04 11:43:52;;;;;;;1.23;1.13;;;14.10;62.70;;;;;;4910286;29;20397;-84
2021/04/04 11:46:42;;;;;;;1.13;1.08;;;14.30;59.50;;;;;;4876077;29;20810;-82
2021/04/04 11:49:38;;;;;;;1.40;1.30;;;14.30;61.10;;;;;;4881262;29;20846;-81
2021/04/04 11:52:10;;;;;;;1.90;1.00;;;14.00;58.20;;;;;;4872402;29;20432;-82
2021/04/04 11:54:44;;;;;;;1.30;1.20;;;13.90;61.70;;;;;;4884321;29;20437;-82
2021/04/04 11:57:32;;;;;;;2.80;1.20;;;14.20;61.10;;;;;;4890895;29;20467;-81
2021/04/04 11:59:59;;;;;;;1.17;1.10;;;14.20;58.80;;;;;;4876739;29;20414;-81
2021/04/04 12:02:27;;;;;;;1.27;1.17;;;14.40;57.10;;;;;;4875298;29;20417;-78
2021/04/04 12:05:08;;;;;;;0.90;0.90;;;14.00;57.70;;;;;;4891530;29;20428;-79
2021/04/04 12:07:47;;;;;;;1.35;1.20;;;14.00;57.10;;;;;;4884065;29;20415;-79
2021/04/04 12:10:23;;;;;;;1.07;1.07;;;13.80;58.30;;;;;;4881395;29;20446;-79
2021/04/04 12:12:49;;;;;;;1.00;1.00;;;13.80;59.30;;;;;;4864134;29;20430;-79
2021/04/04 12:15:16;;;;;;;3.60;1.30;;;13.60;57.50;;;;;;4877334;29;20417;-79
2021/04/04 12:17:49;;;;;;;1.45;1.25;;;13.50;59.10;;;;;;4881710;29;20423;-79
2021/04/04 12:20:18;;;;;;;1.50;1.40;;;13.50;57.20;;;;;;4891964;29;20849;-79
2021/04/04 12:22:45;;;;;;;1.20;1.10;;;13.80;59.10;;;;;;4851665;29;20879;-79
2021/04/04 12:25:12;;;;;;;1.00;1.00;;;14.00;57.30;;;;;;4879634;29;20509;-79
2021/04/04 12:27:40;;;;;;;1.50;1.20;;;14.10;57.10;;;;;;4853030;29;20423;-80
2021/04/04 12:30:06;;;;;;;1.00;1.00;;;14.10;57.50;;;;;;4910945;29;20421;-82
2021/04/04 12:32:33;;;;;;;1.25;1.20;;;14.10;56.80;;;;;;4860817;29;20429;-81
2021/04/04 12:35:01;;;;;;;1.10;1.10;;;14.10;57.50;;;;;;4882705;29;20510;-80
2021/04/04 12:37:28;;;;;;;1.00;1.00;;;14.10;57.30;;;;;;4854779;29;20408;-83
2021/04/04 12:39:55;;;;;;;2.28;1.50;;;14.40;57.70;;;;;;4851887;29;20405;-81
2021/04/04 12:42:32;;;;;;;1.20;1.10;;;14.30;56.40;;;;;;4870777;29;20490;-81
2021/04/04 12:44:59;;;;;;;1.38;1.27;;;13.80;57.70;;;;;;4879523;29;20908;-82
2021/04/04 12:47:26;;;;;;;1.30;1.20;;;13.80;57.90;;;;;;4896118;29;20808;-80
2021/04/04 12:49:59;;;;;;;2.40;1.70;;;14.00;59.50;;;;;;4857000;29;20506;-80
2021/04/04 12:52:36;;;;;;;3.87;2.03;;;14.20;57.00;;;;;;4891627;29;20439;-78
2021/04/04 12:55:15;;;;;;;1.90;1.70;;;14.40;57.20;;;;;;4876753;29;20760;-77
2021/04/04 12:57:42;;;;;;;2.50;2.25;;;14.40;57.70;;;;;;4884729;29;20944;-78
2021/04/04 13:00:22;;;;;;;3.03;2.70;;;14.40;57.50;;;;;;4873530;29;20438;-79
2021/04/04 13:02:55;;;;;;;1.42;1.33;;;14.70;56.80;;;;;;4872919;29;20461;-78
2021/04/04 13:05:22;;;;;;;1.60;1.40;;;14.60;57.30;;;;;;4861311;29;20414;-76
2021/04/04 13:07:47;;;;;;;1.38;1.27;;;14.20;58.10;;;;;;4860878;29;20419;-78
2021/04/04 13:10:13;;;;;;;0.95;0.93;;;14.00;57.70;;;;;;4863385;29;20418;-76